createdAt,value
2018-11-22T00:02:41.467Z,0.90
2018-11-22T00:05:11.757Z,0.90
2018-11-22T00:07:47.803Z,0.90
2018-11-22T00:12:54.152Z,0.90
2018-11-22T00:15:35.171Z,0.90
2018-11-22T00:18:12.541Z,0.90
2018-11-22T00:20:45.411Z,0.90
2018-11-22T00:23:26.084Z,0.90
2018-11-22T00:26:03.209Z,0.90
2018-11-22T00:31:10.929Z,0.90
2018-11-22T00:36:32.501Z,0.90
2018-11-22T00:39:06.226Z,0.90
2018-11-22T00:41:39.588Z,0.90
2018-11-22T00:44:15.797Z,0.90
2018-11-22T00:46:53.920Z,0.90
2018-11-22T00:49:30.940Z,0.90
2018-11-22T00:52:02.848Z,1.00
2018-11-22T00:54:45.510Z,1.00
2018-11-22T00:57:20.901Z,1.00
2018-11-22T01:02:32.792Z,1.00
2018-11-22T01:07:41.929Z,1.00
2018-11-22T01:10:18.595Z,1.00
2018-11-22T01:12:59.218Z,1.00
2018-11-22T01:15:32.539Z,1.00
2018-11-22T01:18:08.864Z,1.00
2018-11-22T01:20:38.580Z,1.00
2018-11-22T01:25:46.818Z,1.00
2018-11-22T01:28:20.720Z,1.00
2018-11-22T01:30:53.913Z,1.00
2018-11-22T01:33:27.880Z,1.00
2018-11-22T01:36:00.648Z,1.00
2018-11-22T01:38:30.403Z,1.10
2018-11-22T01:43:40.361Z,1.10
2018-11-22T01:46:19.654Z,1.10
2018-11-22T01:48:49.425Z,1.00
2018-11-22T01:51:19.172Z,1.10
2018-11-22T01:53:48.884Z,1.10
2018-11-22T01:56:18.679Z,1.10
2018-11-22T02:01:24.442Z,1.10
2018-11-22T02:04:04.221Z,1.10
2018-11-22T02:06:34.306Z,1.10
2018-11-22T02:09:05.363Z,1.00
2018-11-22T02:11:35.043Z,1.10
2018-11-22T02:14:04.862Z,1.10
2018-11-22T02:16:34.564Z,1.10
2018-11-22T02:19:04.285Z,1.10
2018-11-22T02:21:34.565Z,1.10
2018-11-22T02:24:05.137Z,1.10
2018-11-22T02:26:34.836Z,1.10
2018-11-22T02:29:04.561Z,1.10
2018-11-22T02:31:34.270Z,1.10
2018-11-22T02:34:04.080Z,1.10
2018-11-22T02:36:33.764Z,1.10
2018-11-22T02:39:03.599Z,1.10
2018-11-22T02:41:33.269Z,1.10
2018-11-22T02:44:06.285Z,1.10
2018-11-22T02:46:35.968Z,1.10
2018-11-22T02:49:06.014Z,1.10
2018-11-22T02:51:35.778Z,1.10
2018-11-22T02:54:05.495Z,1.10
2018-11-22T02:56:35.222Z,1.10
2018-11-22T02:59:05.775Z,1.10
2018-11-22T03:01:35.452Z,1.10
2018-11-22T03:04:05.236Z,1.10
2018-11-22T03:06:34.888Z,1.10
2018-11-22T03:09:05.029Z,1.10
2018-11-22T03:11:34.715Z,1.10
2018-11-22T03:14:04.407Z,1.10
2018-11-22T03:16:34.103Z,1.10
2018-11-22T03:19:03.873Z,1.10
2018-11-22T03:21:33.573Z,1.10
2018-11-22T03:24:03.332Z,1.10
2018-11-22T03:26:33.024Z,1.10
2018-11-22T03:29:02.677Z,1.10
2018-11-22T03:31:32.411Z,1.10
2018-11-22T03:34:02.390Z,1.10
2018-11-22T03:36:32.095Z,1.10
2018-11-22T03:39:01.840Z,1.10
2018-11-22T03:41:32.018Z,1.10
2018-11-22T03:44:01.802Z,1.10
2018-11-22T03:46:31.702Z,1.10
2018-11-22T03:51:33.535Z,1.20
2018-11-22T03:54:06.719Z,1.20
2018-11-22T03:56:43.540Z,1.20
2018-11-22T03:59:13.252Z,1.20
2018-11-22T04:01:42.978Z,1.20
2018-11-22T04:04:12.725Z,1.30
2018-11-22T04:06:43.301Z,1.30
2018-11-22T04:09:14.259Z,1.20
2018-11-22T04:11:46.461Z,1.30
2018-11-22T04:14:16.700Z,1.20
2018-11-22T04:16:46.379Z,1.20
2018-11-22T04:19:16.920Z,1.20
2018-11-22T04:24:17.471Z,1.20
2018-11-22T04:29:26.551Z,1.30
2018-11-22T04:31:57.823Z,1.20
2018-11-22T04:37:05.998Z,1.20
2018-11-22T04:44:49.923Z,1.20
2018-11-22T04:47:20.553Z,1.20
2018-11-22T04:49:50.793Z,1.20
2018-11-22T04:52:20.485Z,1.20
2018-11-22T04:54:50.134Z,1.30
2018-11-22T04:57:20.121Z,1.20
2018-11-22T04:59:50.092Z,1.20
2018-11-22T05:02:20.150Z,1.30
2018-11-22T05:04:49.855Z,1.20
2018-11-22T05:07:19.795Z,1.20
2018-11-22T05:12:20.420Z,1.30
2018-11-22T05:14:53.258Z,1.20
2018-11-22T05:17:23.362Z,1.30
2018-11-22T05:19:53.104Z,1.30
2018-11-22T05:22:23.062Z,1.20
2018-11-22T05:24:52.855Z,1.20
2018-11-22T05:27:22.535Z,1.30
2018-11-22T05:29:52.248Z,1.30
2018-11-22T05:32:22.102Z,1.30
2018-11-22T05:34:53.322Z,1.30
2018-11-22T05:40:26.073Z,1.30
2018-11-22T05:42:56.071Z,1.30
2018-11-22T05:45:27.467Z,1.30
2018-11-22T05:47:57.185Z,1.30
2018-11-22T05:50:28.259Z,1.30
2018-11-22T05:53:00.012Z,1.30
2018-11-22T05:55:30.337Z,1.30
2018-11-22T05:58:00.035Z,1.30
2018-11-22T06:00:32.072Z,1.30
2018-11-22T06:03:03.014Z,1.30
2018-11-22T06:05:33.988Z,1.30
2018-11-22T06:08:03.714Z,1.30
2018-11-22T06:10:35.042Z,1.30
2018-11-22T06:13:05.553Z,1.30
2018-11-22T06:15:35.322Z,1.30
2018-11-22T06:18:05.067Z,1.30
2018-11-22T06:20:34.272Z,1.30
2018-11-22T06:23:05.253Z,1.30
2018-11-22T06:25:33.840Z,1.30
2018-11-22T06:28:02.468Z,1.30
2018-11-22T06:30:32.392Z,1.30
2018-11-22T06:33:02.051Z,1.30
2018-11-22T06:35:31.452Z,1.30
2018-11-22T06:38:01.531Z,1.30
2018-11-22T06:40:31.265Z,1.30
2018-11-22T06:43:02.229Z,1.30
2018-11-22T06:45:33.246Z,1.30
2018-11-22T06:48:02.892Z,1.30
2018-11-22T06:50:32.564Z,1.30
2018-11-22T06:53:02.544Z,1.30
2018-11-22T06:55:33.753Z,1.30
2018-11-22T06:58:03.491Z,1.30
2018-11-22T07:00:34.854Z,1.30
2018-11-22T07:03:08.827Z,1.30
2018-11-22T07:05:38.575Z,1.30
2018-11-22T07:08:08.356Z,1.30
2018-11-22T07:10:38.381Z,1.40
2018-11-22T07:13:08.462Z,1.40
2018-11-22T07:15:38.473Z,1.30
2018-11-22T07:18:08.929Z,1.40
2018-11-22T07:20:38.699Z,1.40
2018-11-22T07:23:08.439Z,1.30
2018-11-22T07:25:38.622Z,1.30
2018-11-22T07:28:08.722Z,1.30
2018-11-22T07:30:42.465Z,1.30
2018-11-22T07:33:10.076Z,1.40
2018-11-22T07:35:39.919Z,1.40
2018-11-22T07:38:10.393Z,1.40
2018-11-22T07:40:40.133Z,1.40
2018-11-22T08:06:28.497Z,1.50
2018-11-22T08:08:58.822Z,1.50
2018-11-22T08:18:30.349Z,1.60
2018-11-22T08:21:04.749Z,1.60
2018-11-22T08:23:30.141Z,1.60
2018-11-22T08:26:00.668Z,1.60
2018-11-22T08:28:30.371Z,1.60
2018-11-22T08:31:00.071Z,1.60
2018-11-22T08:33:29.843Z,1.70
2018-11-22T08:35:59.628Z,1.70
2018-11-22T08:38:29.485Z,1.70
2018-11-22T08:40:59.214Z,1.70
2018-11-22T08:43:29.047Z,1.70
2018-11-22T08:45:59.165Z,1.70
2018-11-22T08:48:28.957Z,1.70
2018-11-22T08:50:58.743Z,1.70
2018-11-22T08:53:28.535Z,1.80
2018-11-22T08:56:01.323Z,1.80
2018-11-22T08:58:32.344Z,1.80
2018-11-22T09:01:02.839Z,1.80
2018-11-22T12:17:42.500Z,2.50
2018-11-22T12:20:11.987Z,2.50
2018-11-22T12:22:42.139Z,2.50
2018-11-22T12:25:12.740Z,2.50
2018-11-22T12:27:42.122Z,2.50
2018-11-22T12:30:23.783Z,2.50
2018-11-22T12:32:58.575Z,2.50
2018-11-22T12:35:32.356Z,2.50
2018-11-22T12:38:06.363Z,2.50
2018-11-22T12:40:35.100Z,2.50
2018-11-22T12:43:03.706Z,2.50
2018-11-22T12:45:32.796Z,2.50
2018-11-22T12:48:01.262Z,2.60
2018-11-22T12:50:29.805Z,2.60
2018-11-22T12:52:58.665Z,2.60
2018-11-22T12:55:27.683Z,2.60
2018-11-22T12:57:56.821Z,2.60
2018-11-22T13:00:25.572Z,2.60
2018-11-22T13:02:54.242Z,2.60
2018-11-22T13:05:22.760Z,2.50
2018-11-22T13:07:51.343Z,2.60
2018-11-22T13:10:20.461Z,2.50
2018-11-22T13:12:50.049Z,2.50
2018-11-22T13:15:20.173Z,2.50
2018-11-22T13:17:48.792Z,2.50
2018-11-22T13:20:19.072Z,2.50
2018-11-22T13:22:48.795Z,2.50
2018-11-22T13:25:19.107Z,2.50
2018-11-22T13:27:47.727Z,2.40
2018-11-22T13:30:19.193Z,2.40
2018-11-22T13:32:48.412Z,2.40
2018-11-22T13:35:18.008Z,2.40
2018-11-22T13:37:48.508Z,2.40
2018-11-22T13:40:17.275Z,2.40
2018-11-22T13:42:46.757Z,2.40
2018-11-22T13:45:19.251Z,2.40
2018-11-22T13:47:49.302Z,2.40
2018-11-22T13:50:21.717Z,2.40
2018-11-22T13:52:52.445Z,2.30
2018-11-22T13:55:21.170Z,2.30
2018-11-22T13:57:50.347Z,2.30
2018-11-22T14:00:23.696Z,2.30
2018-11-22T14:02:55.987Z,2.30
2018-11-22T14:05:24.630Z,2.30
2018-11-22T14:07:53.258Z,2.30
2018-11-22T14:10:22.172Z,2.20
2018-11-22T14:12:51.075Z,2.30
2018-11-22T14:15:22.089Z,2.20
2018-11-22T14:17:51.805Z,2.20
2018-11-22T14:20:22.173Z,2.30
2018-11-22T14:22:50.970Z,2.20
2018-11-22T14:25:19.624Z,2.20
2018-11-22T14:27:49.215Z,2.20
2018-11-22T14:30:19.039Z,2.20
2018-11-22T14:32:48.394Z,2.20
2018-11-22T14:35:17.983Z,2.20
2018-11-22T14:37:46.621Z,2.20
2018-11-22T14:40:16.754Z,2.20
2018-11-22T14:42:46.288Z,2.20
2018-11-22T14:45:15.628Z,2.20
2018-11-22T14:47:45.374Z,2.20
2018-11-22T14:50:18.746Z,2.20
2018-11-22T14:52:52.393Z,2.20
2018-11-22T14:55:21.033Z,2.20
2018-11-22T14:57:50.028Z,2.20
2018-11-22T15:00:18.519Z,2.20
2018-11-22T15:02:47.975Z,2.20
2018-11-22T15:05:16.903Z,2.20
2018-11-22T15:07:45.821Z,2.20
2018-11-22T15:10:15.622Z,2.20
2018-11-22T15:12:45.264Z,2.20
2018-11-22T15:15:16.400Z,2.10
2018-11-22T15:17:44.878Z,2.10
2018-11-22T15:20:14.972Z,2.10
2018-11-22T15:22:44.297Z,2.10
2018-11-22T15:25:14.030Z,2.10
2018-11-22T15:27:43.122Z,2.10
2018-11-22T15:30:14.833Z,2.00
2018-11-22T15:32:43.325Z,2.00
2018-11-22T15:35:13.387Z,2.00
2018-11-22T15:37:42.275Z,2.00
2018-11-22T15:40:14.002Z,1.90
2018-11-22T15:42:42.957Z,1.90
2018-11-22T15:45:14.268Z,1.90
2018-11-22T15:47:42.914Z,1.90
2018-11-22T15:50:13.811Z,1.90
2018-11-22T15:52:42.907Z,1.90
2018-11-22T15:55:12.109Z,1.90
2018-11-22T15:57:45.318Z,1.90
2018-11-22T16:00:16.756Z,1.90
2018-11-22T16:02:46.088Z,1.90
2018-11-22T16:05:15.290Z,1.80
2018-11-22T16:07:44.096Z,1.80
2018-11-22T16:10:18.325Z,1.80
2018-11-22T16:12:47.683Z,1.80
2018-11-22T16:15:19.539Z,1.80
2018-11-22T16:17:48.139Z,1.80
2018-11-22T16:20:16.950Z,1.80
2018-11-22T16:22:45.609Z,1.80
2018-11-22T16:25:14.128Z,1.80
2018-11-22T16:27:42.786Z,1.80
2018-11-22T16:30:20.512Z,1.80
2018-11-22T16:32:49.065Z,1.80
2018-11-22T16:35:18.411Z,1.80
2018-11-22T16:37:47.040Z,1.80
2018-11-22T16:40:17.955Z,1.80
2018-11-22T16:42:47.489Z,1.80
2018-11-22T16:45:21.576Z,1.70
2018-11-22T16:47:50.180Z,1.80
2018-11-22T16:50:20.276Z,1.70
2018-11-22T16:52:49.014Z,1.80
2018-11-22T16:55:17.938Z,1.70
2018-11-22T16:57:49.609Z,1.70
2018-11-22T17:00:21.998Z,1.70
2018-11-22T17:02:51.856Z,1.80
2018-11-22T17:05:21.092Z,1.80
2018-11-22T17:07:49.853Z,1.70
2018-11-22T17:10:21.856Z,1.70
2018-11-22T17:12:51.880Z,1.70
2018-11-22T17:15:23.238Z,1.70
2018-11-22T17:17:52.318Z,1.70
2018-11-22T17:20:22.119Z,1.70
2018-11-22T17:22:51.320Z,1.70
2018-11-22T17:25:22.163Z,1.80
2018-11-22T17:27:52.266Z,1.80
2018-11-22T17:30:24.589Z,1.80
2018-11-22T17:32:53.271Z,1.70
2018-11-22T17:35:23.113Z,1.70
2018-11-22T17:37:53.001Z,1.70
2018-11-22T17:40:23.296Z,1.70
2018-11-22T17:42:56.689Z,1.70
2018-11-22T17:45:27.152Z,1.70
2018-11-22T17:47:56.342Z,1.70
2018-11-22T17:50:28.358Z,1.70
2018-11-22T17:52:57.492Z,1.70
2018-11-22T17:55:27.935Z,1.70
2018-11-22T17:57:56.939Z,1.70
2018-11-22T18:00:32.692Z,1.70
2018-11-22T18:03:03.156Z,1.70
2018-11-22T18:05:33.144Z,1.70
2018-11-22T18:08:02.183Z,1.70
2018-11-22T18:10:32.635Z,1.70
2018-11-22T18:13:01.920Z,1.70
2018-11-22T18:15:33.994Z,1.70
2018-11-22T18:18:03.335Z,1.70
2018-11-22T18:20:33.323Z,1.60
2018-11-22T18:23:03.338Z,1.60
2018-11-22T18:25:33.212Z,1.60
2018-11-22T18:28:01.850Z,1.60
2018-11-22T18:30:31.770Z,1.60
2018-11-22T18:33:02.019Z,1.60
2018-11-22T18:35:30.525Z,1.60
2018-11-22T18:37:59.088Z,1.60
2018-11-22T18:40:29.228Z,1.60
2018-11-22T18:42:58.776Z,1.60
2018-11-22T18:45:31.666Z,1.60
2018-11-22T18:48:01.124Z,1.60
2018-11-22T18:50:36.153Z,1.60
2018-11-22T18:53:04.826Z,1.60
2018-11-22T18:55:33.322Z,1.60
2018-11-22T18:58:03.415Z,1.60
2018-11-22T19:00:37.524Z,1.60
2018-11-22T19:03:08.326Z,1.60
2018-11-22T19:05:38.323Z,1.60
2018-11-22T19:08:07.491Z,1.50
2018-11-22T19:10:37.785Z,1.50
2018-11-22T19:13:07.779Z,1.50
2018-11-22T19:15:38.387Z,1.60
2018-11-22T19:18:08.234Z,1.50
2018-11-22T19:20:38.298Z,1.50
2018-11-22T19:23:07.772Z,1.50
2018-11-22T19:25:39.866Z,1.50
2018-11-22T19:28:09.821Z,1.50
2018-11-22T19:30:40.017Z,1.50
2018-11-22T19:33:09.985Z,1.50
2018-11-22T19:35:40.553Z,1.50
2018-11-22T19:38:09.099Z,1.50
2018-11-22T19:40:38.838Z,1.50
2018-11-22T19:43:09.848Z,1.50
2018-11-22T19:45:40.164Z,1.50
2018-11-22T19:48:09.075Z,1.50
2018-11-22T19:50:37.637Z,1.50
2018-11-22T19:53:09.742Z,1.50
2018-11-22T19:55:38.913Z,1.50
2018-11-22T19:58:09.535Z,1.50
2018-11-22T20:00:39.591Z,1.50
2018-11-22T20:03:08.896Z,1.40
2018-11-22T20:05:39.053Z,1.50
2018-11-22T20:08:09.125Z,1.50
2018-11-22T20:10:39.477Z,1.50
2018-11-22T20:13:08.222Z,1.50
2018-11-22T20:15:37.096Z,1.50
2018-11-22T20:18:08.061Z,1.50
2018-11-22T20:20:36.663Z,1.50
2018-11-22T20:23:06.174Z,1.50
2018-11-22T20:25:36.743Z,1.50
2018-11-22T20:28:05.869Z,1.50
2018-11-22T20:30:37.539Z,1.50
2018-11-22T20:33:06.232Z,1.50
2018-11-22T20:35:35.322Z,1.50
2018-11-22T20:38:04.471Z,1.50
2018-11-22T20:40:33.498Z,1.50
2018-11-22T20:43:02.319Z,1.50
2018-11-22T20:45:31.643Z,1.50
2018-11-22T20:48:01.679Z,1.50
2018-11-22T20:50:30.593Z,1.50
2018-11-22T20:53:00.203Z,1.50
2018-11-22T20:55:30.212Z,1.50
2018-11-22T20:58:00.097Z,1.50
2018-11-22T21:00:29.875Z,1.50
2018-11-22T21:03:01.256Z,1.50
2018-11-22T21:05:30.595Z,1.50
2018-11-22T21:07:59.127Z,1.50
2018-11-22T21:10:29.050Z,1.50
2018-11-22T21:12:57.782Z,1.50
2018-11-22T21:15:29.160Z,1.50
2018-11-22T21:17:59.236Z,1.50
2018-11-22T21:20:29.792Z,1.50
2018-11-22T21:22:58.309Z,1.50
2018-11-22T21:25:27.299Z,1.50
2018-11-22T21:27:56.227Z,1.50
2018-11-22T21:30:30.605Z,1.50
2018-11-22T21:32:59.748Z,1.50
2018-11-22T21:35:29.975Z,1.50
2018-11-22T21:37:59.601Z,1.50
2018-11-22T21:40:28.909Z,1.50
2018-11-22T21:42:57.497Z,1.50
2018-11-22T21:45:26.627Z,1.50
2018-11-22T21:47:55.217Z,1.50
2018-11-22T21:50:25.010Z,1.50
2018-11-22T21:52:53.513Z,1.60
2018-11-22T21:55:23.293Z,1.50
2018-11-22T21:57:52.861Z,1.60
2018-11-22T22:00:24.220Z,1.50
2018-11-22T22:02:55.092Z,1.60
2018-11-22T22:05:23.605Z,1.60
2018-11-22T22:07:52.122Z,1.60
2018-11-22T22:10:20.776Z,1.60
2018-11-22T22:12:49.555Z,1.60
2018-11-22T22:15:19.628Z,1.60
2018-11-22T22:17:48.467Z,1.60
2018-11-22T22:20:18.579Z,1.60
2018-11-22T22:22:47.053Z,1.60
2018-11-22T22:25:17.112Z,1.60
2018-11-22T22:27:46.080Z,1.60
2018-11-22T22:30:16.216Z,1.60
2018-11-22T22:32:45.509Z,1.60
2018-11-22T22:35:13.962Z,1.60
2018-11-22T22:37:42.634Z,1.60
2018-11-22T22:40:13.640Z,1.60
2018-11-22T22:42:43.324Z,1.60
2018-11-22T22:45:12.723Z,1.60
2018-11-22T22:47:41.509Z,1.60
2018-11-22T22:50:12.971Z,1.60
2018-11-22T22:52:41.460Z,1.60
2018-11-22T22:55:10.693Z,1.60
2018-11-22T22:57:39.633Z,1.60
2018-11-22T23:00:22.530Z,1.60
2018-11-22T23:02:59.934Z,1.60
2018-11-22T23:05:29.166Z,1.70
2018-11-22T23:07:57.669Z,1.60
2018-11-22T23:10:26.338Z,1.70
2018-11-22T23:12:55.521Z,1.70
2018-11-22T23:15:24.583Z,1.70
2018-11-22T23:17:53.279Z,1.70
2018-11-22T23:20:24.295Z,1.70
2018-11-22T23:22:53.029Z,1.70
2018-11-22T23:25:22.568Z,1.70
2018-11-22T23:27:51.119Z,1.70
2018-11-22T23:30:22.193Z,1.70
2018-11-22T23:32:53.978Z,1.70
2018-11-22T23:35:22.841Z,1.80
2018-11-22T23:37:51.834Z,1.80
2018-11-22T23:40:23.764Z,1.80
2018-11-22T23:42:52.347Z,1.80
2018-11-22T23:45:22.131Z,1.80
2018-11-22T23:47:50.963Z,1.80
2018-11-22T23:50:20.899Z,1.80
2018-11-22T23:52:50.651Z,1.80
2018-11-22T23:55:19.152Z,1.80
2018-11-22T23:57:47.701Z,1.80
